Time;durP1;ratioP1;P1;durP2;ratioP2;P2;SDS_P1;SDS_P2;PMS_P1;PMS_P2;Temp;Humidity;BMP_temperature;BMP_pressure;BME280_temperature;BME280_humidity;BME280_pressure;Samples;Min_cycle;Max_cycle;Signal;HPM_P1;HPM_P2
2022/03/02 00:00:13;;;;;;;50.38;36.20;;;;;;;;;;5055786;28;20028;-73
2022/03/02 00:02:41;;;;;;;51.33;38.75;;;;;;;;;;5056439;28;20112;-70
2022/03/02 00:05:08;;;;;;;62.42;45.08;;;;;;;;;;5056205;28;20079;-74
2022/03/02 00:07:34;;;;;;;53.35;39.42;;;;;;;;;;5056268;28;20432;-71
2022/03/02 00:10:00;;;;;;;36.30;30.25;;;;;;;;;;5056491;28;20049;-72
2022/03/02 00:12:27;;;;;;;64.57;46.42;;;;;;;;;;5038347;28;20492;-72
2022/03/02 00:14:53;;;;;;;48.70;37.55;;;;;;;;;;5038350;28;20017;-70
2022/03/02 00:17:19;;;;;;;42.40;31.50;;;;;;;;;;5056139;28;20029;-71
2022/03/02 00:19:45;;;;;;;46.70;35.05;;;;;;;;;;5056384;28;20078;-72
2022/03/02 00:22:11;;;;;;;39.85;28.52;;;;;;;;;;5056080;28;20060;-72
2022/03/02 00:24:37;;;;;;;38.13;28.77;;;;;;;;;;5055991;28;20505;-72
2022/03/02 00:27:04;;;;;;;36.97;27.65;;;;;;;;;;5038085;28;20421;-73
2022/03/02 00:29:30;;;;;;;38.92;25.60;;;;;;;;;;5055911;28;20500;-71
2022/03/02 00:31:56;;;;;;;40.53;25.92;;;;;;;;;;5055903;28;20496;-73
2022/03/02 00:34:22;;;;;;;38.58;24.98;;;;;;;;;;5055855;28;20017;-71
2022/03/02 00:36:48;;;;;;;35.63;24.13;;;;;;;;;;5055759;28;20071;-72
2022/03/02 00:39:14;;;;;;;32.80;23.65;;;;;;;;;;5055741;28;20032;-71
2022/03/02 00:41:40;;;;;;;33.70;23.00;;;;;;;;;;5055934;28;20477;-70
2022/03/02 00:44:06;;;;;;;32.30;21.70;;;;;;;;;;5055634;28;20086;-73
2022/03/02 00:46:32;;;;;;;32.72;21.77;;;;;;;;;;5055557;28;20446;-73
2022/03/02 00:48:59;;;;;;;31.10;22.10;;;;;;;;;;5055557;28;20029;-72
2022/03/02 00:51:25;;;;;;;34.20;21.75;;;;;;;;;;5037573;28;20025;-70
2022/03/02 00:53:52;;;;;;;32.13;22.13;;;;;;;;;;5055489;28;20021;-72
2022/03/02 00:56:19;;;;;;;34.67;23.73;;;;;;;;;;5037446;28;20029;-72
2022/03/02 00:58:45;;;;;;;32.25;22.13;;;;;;;;;;5055355;28;20025;-72
2022/03/02 01:01:11;;;;;;;29.83;22.25;;;;;;;;;;5055599;28;20025;-71
2022/03/02 01:03:37;;;;;;;32.13;22.30;;;;;;;;;;5055562;28;20393;-71
2022/03/02 01:06:05;;;;;;;32.17;21.60;;;;;;;;;;5055104;28;20053;-74
2022/03/02 01:08:31;;;;;;;37.45;22.52;;;;;;;;;;5037367;28;20082;-72
2022/03/02 01:10:57;;;;;;;33.65;23.38;;;;;;;;;;5055309;28;20029;-73
2022/03/02 01:13:23;;;;;;;35.92;23.00;;;;;;;;;;5055116;28;20049;-72
2022/03/02 01:15:49;;;;;;;34.03;21.73;;;;;;;;;;5055355;28;20052;-72
2022/03/02 01:18:16;;;;;;;31.67;21.45;;;;;;;;;;5055291;28;20511;-71
2022/03/02 01:20:42;;;;;;;27.23;18.92;;;;;;;;;;5054963;28;20025;-72
2022/03/02 01:23:08;;;;;;;32.53;19.75;;;;;;;;;;5037082;28;20036;-71
2022/03/02 01:25:34;;;;;;;24.15;17.48;;;;;;;;;;5054842;28;20033;-73
2022/03/02 01:28:00;;;;;;;24.30;16.52;;;;;;;;;;5054816;28;20159;-71
2022/03/02 01:30:27;;;;;;;25.60;16.17;;;;;;;;;;5054957;28;20091;-72
2022/03/02 01:32:53;;;;;;;27.70;16.58;;;;;;;;;;5054749;28;20436;-72
2022/03/02 01:35:19;;;;;;;26.02;15.75;;;;;;;;;;5054967;28;20095;-70
2022/03/02 01:37:45;;;;;;;29.42;16.63;;;;;;;;;;5055238;28;20025;-73
2022/03/02 01:40:11;;;;;;;25.48;17.15;;;;;;;;;;5036705;28;20033;-73
2022/03/02 01:42:38;;;;;;;30.50;18.67;;;;;;;;;;5054589;28;20063;-72
2022/03/02 01:45:04;;;;;;;29.88;20.92;;;;;;;;;;5036588;28;20421;-72
2022/03/02 01:47:31;;;;;;;34.47;22.50;;;;;;;;;;5054518;28;20056;-72
2022/03/02 01:49:57;;;;;;;34.53;23.90;;;;;;;;;;5054631;28;20112;-72
2022/03/02 01:52:23;;;;;;;36.70;24.25;;;;;;;;;;5054677;28;20025;-70
2022/03/02 01:54:49;;;;;;;37.50;25.10;;;;;;;;;;5054259;28;20048;-73
2022/03/02 01:57:15;;;;;;;31.90;22.83;;;;;;;;;;5054233;28;20104;-72
2022/03/02 01:59:41;;;;;;;32.97;23.02;;;;;;;;;;5054236;28;20036;-73
2022/03/02 02:02:07;;;;;;;32.40;23.55;;;;;;;;;;5054722;28;20021;-71
2022/03/02 02:04:33;;;;;;;35.88;24.88;;;;;;;;;;5054064;28;20132;-73
2022/03/02 02:06:59;;;;;;;34.13;22.65;;;;;;;;;;5054105;28;20060;-72
2022/03/02 02:09:25;;;;;;;31.95;22.70;;;;;;;;;;5036114;28;20036;-71
2022/03/02 02:11:51;;;;;;;31.23;20.90;;;;;;;;;;5036148;28;20034;-72
2022/03/02 02:14:17;;;;;;;33.78;26.77;;;;;;;;;;5053922;28;20056;-73
2022/03/02 02:16:44;;;;;;;30.35;21.35;;;;;;;;;;5054173;28;20116;-71
2022/03/02 02:19:10;;;;;;;26.55;21.08;;;;;;;;;;5054426;28;20025;-71
2022/03/02 02:21:36;;;;;;;28.60;21.08;;;;;;;;;;5053193;28;20025;-73
2022/03/02 02:24:03;;;;;;;28.52;20.73;;;;;;;;;;5053788;28;20079;-73
2022/03/02 02:26:29;;;;;;;28.77;20.13;;;;;;;;;;5053749;28;20025;-72
2022/03/02 02:28:55;;;;;;;28.90;21.10;;;;;;;;;;5053697;28;20025;-72
2022/03/02 02:31:21;;;;;;;27.00;19.38;;;;;;;;;;5054075;28;20123;-73
2022/03/02 02:33:48;;;;;;;26.65;19.33;;;;;;;;;;5053617;28;20063;-74
2022/03/02 02:36:15;;;;;;;27.70;19.38;;;;;;;;;;5053570;28;20025;-74
2022/03/02 02:38:41;;;;;;;28.25;20.48;;;;;;;;;;5053788;28;20025;-72
2022/03/02 02:41:07;;;;;;;26.50;19.75;;;;;;;;;;5053524;28;20021;-73
2022/03/02 02:43:34;;;;;;;28.70;21.30;;;;;;;;;;5053729;28;20029;-70
2022/03/02 02:46:00;;;;;;;29.08;22.02;;;;;;;;;;5053673;28;20516;-71
2022/03/02 02:48:26;;;;;;;35.10;23.67;;;;;;;;;;5053347;28;20033;-71
2022/03/02 02:50:52;;;;;;;29.83;22.85;;;;;;;;;;5053549;28;20048;-74
2022/03/02 02:53:18;;;;;;;29.35;22.25;;;;;;;;;;5053597;28;20057;-72
2022/03/02 02:55:45;;;;;;;36.67;26.48;;;;;;;;;;5053213;28;20025;-71
2022/03/02 02:58:11;;;;;;;33.65;27.02;;;;;;;;;;5053536;28;20025;-74
2022/03/02 03:00:39;;;;;;;33.55;25.77;;;;;;;;;;5053198;28;20029;-71
2022/03/02 03:03:05;;;;;;;37.58;28.13;;;;;;;;;;5035306;28;20116;-73
2022/03/02 03:05:32;;;;;;;32.85;25.27;;;;;;;;;;5052845;28;20390;-73
2022/03/02 03:08:00;;;;;;;32.30;23.48;;;;;;;;;;5053132;28;20393;-72
2022/03/02 03:10:27;;;;;;;28.25;21.75;;;;;;;;;;5053369;28;20385;-71
2022/03/02 03:12:53;;;;;;;29.60;23.50;;;;;;;;;;5053154;28;20389;-72
2022/03/02 03:15:20;;;;;;;32.47;23.90;;;;;;;;;;5053064;28;20371;-71
2022/03/02 03:17:46;;;;;;;31.67;25.27;;;;;;;;;;5053045;28;20028;-73
2022/03/02 03:20:14;;;;;;;35.45;26.08;;;;;;;;;;5053001;28;20075;-72
2022/03/02 03:22:40;;;;;;;36.42;26.23;;;;;;;;;;5035113;28;20047;-71
2022/03/02 03:25:07;;;;;;;34.70;26.48;;;;;;;;;;5053057;28;20029;-71
2022/03/02 03:27:33;;;;;;;36.30;27.13;;;;;;;;;;5052979;28;20432;-70
2022/03/02 03:29:59;;;;;;;31.70;22.52;;;;;;;;;;5052905;28;20032;-72
2022/03/02 03:32:26;;;;;;;27.83;21.05;;;;;;;;;;5053560;28;20385;-72
2022/03/02 03:34:52;;;;;;;30.13;23.35;;;;;;;;;;5057050;28;20021;-71
2022/03/02 03:37:18;;;;;;;29.88;22.10;;;;;;;;;;5056921;28;20575;-71
2022/03/02 03:39:44;;;;;;;29.70;20.00;;;;;;;;;;5056834;28;20037;-72
2022/03/02 03:42:11;;;;;;;25.88;18.00;;;;;;;;;;5057082;28;20110;-71
2022/03/02 03:44:37;;;;;;;22.90;16.55;;;;;;;;;;5057057;28;20031;-73
2022/03/02 03:47:04;;;;;;;24.23;17.27;;;;;;;;;;5057025;28;20097;-73
2022/03/02 03:49:30;;;;;;;27.88;18.45;;;;;;;;;;5056628;28;20021;-71
2022/03/02 03:51:56;;;;;;;22.77;16.42;;;;;;;;;;5056921;28;20032;-74
2022/03/02 03:54:22;;;;;;;25.30;16.75;;;;;;;;;;5056774;28;20428;-71
2022/03/02 03:56:48;;;;;;;26.08;16.30;;;;;;;;;;5056561;28;20397;-72
2022/03/02 03:59:14;;;;;;;25.00;16.30;;;;;;;;;;5056529;28;20029;-72
2022/03/02 04:01:41;;;;;;;22.92;16.95;;;;;;;;;;5056457;28;20095;-74
2022/03/02 04:04:07;;;;;;;24.17;18.40;;;;;;;;;;5056539;28;20047;-71
2022/03/02 04:06:33;;;;;;;22.73;16.60;;;;;;;;;;5056991;28;20029;-72
2022/03/02 04:08:59;;;;;;;19.95;15.35;;;;;;;;;;5056687;28;20047;-70
2022/03/02 04:11:25;;;;;;;19.63;13.93;;;;;;;;;;5056204;28;20477;-72
2022/03/02 04:13:53;;;;;;;19.23;13.85;;;;;;;;;;5056240;28;20025;-71
2022/03/02 04:16:19;;;;;;;20.20;13.65;;;;;;;;;;5056228;28;20385;-74
2022/03/02 04:18:45;;;;;;;19.80;13.98;;;;;;;;;;5056213;28;20025;-73
2022/03/02 04:21:11;;;;;;;20.05;14.05;;;;;;;;;;5056370;28;20397;-72
2022/03/02 04:23:37;;;;;;;21.27;15.00;;;;;;;;;;5056364;28;20025;-73
2022/03/02 04:26:04;;;;;;;21.23;14.45;;;;;;;;;;5056047;28;20399;-73
2022/03/02 04:28:30;;;;;;;20.35;14.38;;;;;;;;;;5056251;28;20048;-71
2022/03/02 04:30:56;;;;;;;20.33;15.68;;;;;;;;;;5056158;28;20036;-72
2022/03/02 04:33:22;;;;;;;24.27;16.38;;;;;;;;;;5056194;28;20067;-73
2022/03/02 04:35:48;;;;;;;23.30;16.83;;;;;;;;;;5055845;28;20025;-72
2022/03/02 04:38:15;;;;;;;21.08;16.33;;;;;;;;;;5055843;28;20032;-71
2022/03/02 04:40:41;;;;;;;26.70;17.05;;;;;;;;;;5055739;28;20036;-71
2022/03/02 04:43:07;;;;;;;22.33;16.38;;;;;;;;;;5055757;28;20389;-72
2022/03/02 04:45:34;;;;;;;18.48;13.70;;;;;;;;;;5054994;28;20029;-73
2022/03/02 04:48:00;;;;;;;21.42;13.98;;;;;;;;;;5037687;28;20021;-71
2022/03/02 04:50:27;;;;;;;22.27;14.55;;;;;;;;;;5055495;28;20456;-73
2022/03/02 04:52:53;;;;;;;18.85;12.93;;;;;;;;;;5055546;28;20053;-72
2022/03/02 04:55:19;;;;;;;18.65;13.02;;;;;;;;;;5055570;28;20024;-73
2022/03/02 04:57:47;;;;;;;20.40;12.77;;;;;;;;;;5055749;28;20021;-71
2022/03/02 05:00:13;;;;;;;19.70;12.00;;;;;;;;;;5055373;28;20025;-70
2022/03/02 05:02:40;;;;;;;17.85;11.95;;;;;;;;;;5055331;28;20021;-72
2022/03/02 05:05:06;;;;;;;19.77;11.25;;;;;;;;;;5055102;28;20123;-72
2022/03/02 05:07:32;;;;;;;18.77;12.93;;;;;;;;;;5055272;28;20056;-71
2022/03/02 05:09:58;;;;;;;19.63;11.73;;;;;;;;;;5055393;28;20029;-73
2022/03/02 05:12:24;;;;;;;16.77;11.60;;;;;;;;;;5055440;28;20033;-73
2022/03/02 05:14:50;;;;;;;18.02;10.98;;;;;;;;;;5055390;28;20094;-71
2022/03/02 05:17:17;;;;;;;14.98;9.98;;;;;;;;;;5055371;28;20104;-72
2022/03/02 05:19:43;;;;;;;15.68;11.05;;;;;;;;;;5055093;28;20074;-73
2022/03/02 05:22:09;;;;;;;18.13;11.73;;;;;;;;;;5037168;28;20021;-73
2022/03/02 05:24:36;;;;;;;15.90;10.82;;;;;;;;;;5055253;28;20080;-72
2022/03/02 05:27:02;;;;;;;14.82;10.77;;;;;;;;;;5055169;28;20024;-70
2022/03/02 05:29:28;;;;;;;22.48;11.00;;;;;;;;;;5055331;28;20025;-74
2022/03/02 05:31:54;;;;;;;18.98;11.50;;;;;;;;;;5054811;28;20021;-72
2022/03/02 05:34:20;;;;;;;15.70;10.82;;;;;;;;;;5036856;28;20052;-73
2022/03/02 05:36:46;;;;;;;16.40;10.40;;;;;;;;;;5054731;28;20044;-72
2022/03/02 05:39:12;;;;;;;13.85;10.32;;;;;;;;;;5036712;28;20025;-72
2022/03/02 05:41:39;;;;;;;16.77;10.98;;;;;;;;;;5054845;28;20025;-73
2022/03/02 05:44:07;;;;;;;14.73;10.20;;;;;;;;;;5054585;28;20025;-73
2022/03/02 05:46:33;;;;;;;16.45;11.18;;;;;;;;;;5054531;28;20024;-71
2022/03/02 05:48:59;;;;;;;15.13;10.32;;;;;;;;;;5054466;28;20029;-71
2022/03/02 05:51:25;;;;;;;18.60;11.80;;;;;;;;;;5036521;28;20135;-73
2022/03/02 05:53:51;;;;;;;24.08;12.52;;;;;;;;;;5054957;28;20063;-72
2022/03/02 05:56:17;;;;;;;19.35;10.60;;;;;;;;;;5035462;28;20021;-71
2022/03/02 05:58:44;;;;;;;18.95;12.57;;;;;;;;;;5054309;28;20025;-71
2022/03/02 06:01:10;;;;;;;17.35;12.18;;;;;;;;;;5054227;28;20078;-74
2022/03/02 06:03:36;;;;;;;15.90;10.90;;;;;;;;;;5054695;28;20492;-72
2022/03/02 06:06:02;;;;;;;15.82;10.40;;;;;;;;;;5053705;28;20049;-70
2022/03/02 06:08:28;;;;;;;16.27;11.15;;;;;;;;;;5054104;28;20076;-72
2022/03/02 06:10:54;;;;;;;16.58;11.38;;;;;;;;;;5054180;28;20029;-72
2022/03/02 06:13:20;;;;;;;17.90;11.40;;;;;;;;;;5054268;28;20486;-72
2022/03/02 06:15:46;;;;;;;16.55;11.05;;;;;;;;;;5054458;28;20028;-72
2022/03/02 06:18:13;;;;;;;18.73;10.88;;;;;;;;;;5054174;28;20025;-72
2022/03/02 06:20:41;;;;;;;16.75;11.05;;;;;;;;;;5054396;28;20021;-72
2022/03/02 06:23:07;;;;;;;17.40;11.38;;;;;;;;;;5054412;28;20082;-73
2022/03/02 06:25:33;;;;;;;16.42;11.82;;;;;;;;;;5053785;28;20049;-70
2022/03/02 06:27:59;;;;;;;17.77;11.98;;;;;;;;;;5053749;28;20103;-72
2022/03/02 06:30:25;;;;;;;18.35;12.25;;;;;;;;;;5053626;28;20486;-73
2022/03/02 06:32:52;;;;;;;16.83;12.13;;;;;;;;;;5053627;28;20071;-71
2022/03/02 06:35:18;;;;;;;17.00;12.05;;;;;;;;;;5053629;28;20103;-72
2022/03/02 06:37:45;;;;;;;17.10;11.15;;;;;;;;;;5053829;28;20079;-72
2022/03/02 06:40:12;;;;;;;17.98;12.93;;;;;;;;;;5053520;28;20051;-72
2022/03/02 06:42:59;;;;;;;20.95;14.23;;;;;;;;;;5035626;28;20409;-72
2022/03/02 06:45:44;;;;;;;22.40;13.90;;;;;;;;;;5053923;28;20048;-73
2022/03/02 06:48:30;;;;;;;20.08;14.15;;;;;;;;;;5053463;28;20028;-73
2022/03/02 06:50:59;;;;;;;20.92;14.05;;;;;;;;;;5053453;28;20478;-72
2022/03/02 06:53:32;;;;;;;17.08;11.77;;;;;;;;;;5053293;28;20033;-73
2022/03/02 06:56:00;;;;;;;19.90;13.20;;;;;;;;;;5053328;28;20021;-72
2022/03/02 06:58:28;;;;;;;19.20;13.10;;;;;;;;;;5053286;28;20099;-72
2022/03/02 07:00:54;;;;;;;16.05;12.05;;;;;;;;;;5053251;28;20108;-73
2022/03/02 07:03:20;;;;;;;22.85;13.82;;;;;;;;;;5053261;28;20501;-71
2022/03/02 07:05:46;;;;;;;22.50;13.75;;;;;;;;;;5052744;28;20517;-73
2022/03/02 07:08:13;;;;;;;24.00;14.10;;;;;;;;;;5052905;28;20032;-72
2022/03/02 07:10:39;;;;;;;20.77;14.50;;;;;;;;;;5053383;28;20070;-72
2022/03/02 07:13:06;;;;;;;20.10;13.35;;;;;;;;;;5053115;28;20464;-74
2022/03/02 07:15:33;;;;;;;21.52;12.88;;;;;;;;;;5053381;28;20485;-72
2022/03/02 07:17:59;;;;;;;18.50;12.10;;;;;;;;;;5053068;28;20496;-71
2022/03/02 07:20:27;;;;;;;22.30;12.93;;;;;;;;;;5035231;28;20041;-73
2022/03/02 07:22:53;;;;;;;18.77;12.93;;;;;;;;;;5053038;28;20461;-72
2022/03/02 07:25:25;;;;;;;18.90;12.82;;;;;;;;;;5053021;28;20052;-73
2022/03/02 07:27:51;;;;;;;19.63;12.93;;;;;;;;;;5053074;28;20028;-73
2022/03/02 07:30:18;;;;;;;22.10;12.68;;;;;;;;;;5053470;28;20035;-73
2022/03/02 07:32:45;;;;;;;17.77;12.20;;;;;;;;;;5053496;28;20350;-73
2022/03/02 07:35:12;;;;;;;19.52;11.80;;;;;;;;;;5053220;28;20020;-73
2022/03/02 07:37:38;;;;;;;19.52;12.77;;;;;;;;;;5052900;28;20495;-73
2022/03/02 07:40:04;;;;;;;18.35;13.25;;;;;;;;;;5052822;28;20025;-72
2022/03/02 07:42:32;;;;;;;16.50;12.70;;;;;;;;;;5052896;28;20393;-73
2022/03/02 07:44:58;;;;;;;19.65;13.05;;;;;;;;;;5052831;28;20021;-74
2022/03/02 07:47:24;;;;;;;16.98;12.27;;;;;;;;;;5052793;28;20060;-72
2022/03/02 07:49:51;;;;;;;18.52;12.00;;;;;;;;;;5052738;28;20443;-73
2022/03/02 07:52:17;;;;;;;20.13;13.23;;;;;;;;;;5053086;28;20507;-73
2022/03/02 07:54:46;;;;;;;19.55;12.30;;;;;;;;;;5052697;28;20148;-72
2022/03/02 07:57:13;;;;;;;18.00;12.25;;;;;;;;;;5052712;28;20025;-72
2022/03/02 07:59:40;;;;;;;18.50;12.02;;;;;;;;;;5052970;28;20492;-72
2022/03/02 08:02:08;;;;;;;17.58;12.70;;;;;;;;;;5052670;28;20366;-72
2022/03/02 08:04:35;;;;;;;16.45;12.07;;;;;;;;;;5052585;28;20052;-73
2022/03/02 08:07:01;;;;;;;19.58;12.70;;;;;;;;;;5052621;28;20025;-71
2022/03/02 08:09:28;;;;;;;17.98;11.70;;;;;;;;;;5052582;28;20013;-73
2022/03/02 08:11:54;;;;;;;19.40;11.43;;;;;;;;;;5052528;28;20104;-72
2022/03/02 08:14:23;;;;;;;17.48;11.82;;;;;;;;;;5052559;28;20021;-73
2022/03/02 08:16:50;;;;;;;17.42;11.95;;;;;;;;;;5052892;28;20471;-72
2022/03/02 08:19:16;;;;;;;19.27;12.73;;;;;;;;;;5052534;28;20021;-72
2022/03/02 08:21:43;;;;;;;20.88;12.38;;;;;;;;;;5056133;28;20104;-72
2022/03/02 08:24:10;;;;;;;18.25;12.55;;;;;;;;;;5056138;28;20084;-72
2022/03/02 08:26:38;;;;;;;19.23;12.68;;;;;;;;;;5056064;28;20102;-73
2022/03/02 08:29:05;;;;;;;18.85;12.57;;;;;;;;;;5056049;28;20056;-73
2022/03/02 08:31:32;;;;;;;19.33;12.15;;;;;;;;;;5056036;28;20560;-72
2022/03/02 08:33:59;;;;;;;18.73;12.00;;;;;;;;;;5055857;28;20025;-74
2022/03/02 08:36:25;;;;;;;17.45;12.52;;;;;;;;;;5056155;28;20025;-74
2022/03/02 08:38:52;;;;;;;18.58;10.98;;;;;;;;;;5055908;28;20021;-73
2022/03/02 08:41:18;;;;;;;21.27;12.95;;;;;;;;;;5056331;28;20025;-73
2022/03/02 08:43:45;;;;;;;16.50;10.70;;;;;;;;;;5056295;28;20035;-67
2022/03/02 08:46:11;;;;;;;20.70;12.55;;;;;;;;;;5055730;28;20393;-68
2022/03/02 08:48:37;;;;;;;16.65;11.30;;;;;;;;;;5037562;28;20029;-67
2022/03/02 08:51:04;;;;;;;15.68;11.23;;;;;;;;;;5055734;28;20372;-68
2022/03/02 08:53:31;;;;;;;16.88;11.57;;;;;;;;;;5055436;28;20100;-67
2022/03/02 08:56:00;;;;;;;16.60;10.95;;;;;;;;;;5055734;28;20035;-69
2022/03/02 08:58:27;;;;;;;14.95;11.13;;;;;;;;;;5055594;28;20025;-69
2022/03/02 09:00:53;;;;;;;18.02;12.00;;;;;;;;;;5056211;28;20029;-68
2022/03/02 09:03:21;;;;;;;16.80;11.68;;;;;;;;;;5055283;28;20024;-71
2022/03/02 09:05:49;;;;;;;16.13;11.07;;;;;;;;;;5054816;28;20076;-70
2022/03/02 09:08:15;;;;;;;15.98;11.90;;;;;;;;;;5055195;28;20065;-70
2022/03/02 09:10:42;;;;;;;18.17;12.18;;;;;;;;;;5055065;28;20498;-71
2022/03/02 09:13:10;;;;;;;18.10;11.65;;;;;;;;;;5055105;28;20027;-70
2022/03/02 09:15:37;;;;;;;17.80;11.60;;;;;;;;;;5055085;28;20159;-70
2022/03/02 09:18:04;;;;;;;16.85;11.10;;;;;;;;;;5037093;28;20508;-68
2022/03/02 09:20:30;;;;;;;17.63;12.13;;;;;;;;;;5054968;28;20028;-68
2022/03/02 09:22:57;;;;;;;15.20;10.65;;;;;;;;;;5054912;28;20032;-69
2022/03/02 09:25:24;;;;;;;19.58;15.27;;;;;;;;;;5054837;28;20033;-71
2022/03/02 09:27:51;;;;;;;19.48;12.02;;;;;;;;;;5055361;28;20064;-70
2022/03/02 09:30:17;;;;;;;13.20;10.43;;;;;;;;;;5054524;28;20033;-71
2022/03/02 09:32:44;;;;;;;16.70;11.60;;;;;;;;;;5054714;28;20027;-69
2022/03/02 09:35:13;;;;;;;15.05;10.45;;;;;;;;;;5054966;28;20029;-70
2022/03/02 09:37:41;;;;;;;17.35;10.68;;;;;;;;;;5054628;28;20056;-69
2022/03/02 09:40:07;;;;;;;17.90;13.30;;;;;;;;;;5054582;28;20061;-71
2022/03/02 09:42:40;;;;;;;17.08;10.98;;;;;;;;;;5054541;28;20025;-70
2022/03/02 09:45:07;;;;;;;20.65;12.77;;;;;;;;;;5055143;28;20071;-70
2022/03/02 09:47:44;;;;;;;15.88;11.18;;;;;;;;;;5055148;28;20150;-70
2022/03/02 09:50:14;;;;;;;17.10;11.50;;;;;;;;;;5054414;28;20032;-71
2022/03/02 09:52:41;;;;;;;19.75;11.95;;;;;;;;;;5054416;28;20021;-71
2022/03/02 09:55:12;;;;;;;15.82;10.65;;;;;;;;;;5054568;28;20106;-70
2022/03/02 09:57:45;;;;;;;15.85;11.30;;;;;;;;;;5054337;28;20500;-69
2022/03/02 10:00:13;;;;;;;19.55;13.48;;;;;;;;;;5054609;28;20039;-70
2022/03/02 10:02:43;;;;;;;16.50;11.63;;;;;;;;;;5054935;28;20544;-70
2022/03/02 10:05:09;;;;;;;;;;;;;;;;;;5054667;28;20454;-71
2022/03/02 10:07:37;;;;;;;15.20;10.48;;;;;;;;;;5054310;28;19912;-70
2022/03/02 10:10:03;;;;;;;18.17;11.63;;;;;;;;;;5054162;28;20025;-71
2022/03/02 10:12:31;;;;;;;16.63;11.68;;;;;;;;;;5054158;28;20367;-70
2022/03/02 10:14:58;;;;;;;15.00;10.93;;;;;;;;;;5054036;28;20417;-69
2022/03/02 10:17:28;;;;;;;14.65;10.30;;;;;;;;;;5054077;28;20036;-69
2022/03/02 10:19:56;;;;;;;15.90;10.90;;;;;;;;;;5054476;28;20017;-71
2022/03/02 10:22:40;;;;;;;16.40;10.88;;;;;;;;;;5055037;28;20484;-70
2022/03/02 10:25:10;;;;;;;15.23;10.07;;;;;;;;;;5054087;28;20486;-71
2022/03/02 10:27:55;;;;;;;14.65;10.07;;;;;;;;;;5055587;28;20450;-69
2022/03/02 10:30:21;;;;;;;15.10;10.00;;;;;;;;;;5055052;28;20024;-70
2022/03/02 10:32:49;;;;;;;14.85;10.32;;;;;;;;;;5036533;28;20389;-70
2022/03/02 10:35:24;;;;;;;17.25;11.27;;;;;;;;;;5054565;28;20438;-69
2022/03/02 10:37:58;;;;;;;16.67;9.88;;;;;;;;;;5054885;28;20027;-70
2022/03/02 10:40:25;;;;;;;18.67;10.90;;;;;;;;;;5054357;28;20029;-70
2022/03/02 10:42:57;;;;;;;15.77;9.75;;;;;;;;;;5053037;28;20032;-71
2022/03/02 10:45:32;;;;;;;14.98;9.50;;;;;;;;;;5053639;28;20021;-70
2022/03/02 10:48:17;;;;;;;14.95;10.38;;;;;;;;;;5053488;28;20032;-72
2022/03/02 10:50:46;;;;;;;16.23;11.13;;;;;;;;;;5053894;28;20040;-73
2022/03/02 10:53:15;;;;;;;16.80;10.70;;;;;;;;;;5053731;28;20021;-72
2022/03/02 10:55:46;;;;;;;17.70;10.43;;;;;;;;;;5053332;28;20044;-70
2022/03/02 10:58:16;;;;;;;14.82;10.48;;;;;;;;;;5053915;28;20021;-71
2022/03/02 11:00:42;;;;;;;15.20;9.82;;;;;;;;;;5053313;28;20052;-71
2022/03/02 11:03:09;;;;;;;21.42;12.80;;;;;;;;;;5053406;28;20021;-70
2022/03/02 11:05:36;;;;;;;19.75;15.20;;;;;;;;;;5053078;28;20600;-70
2022/03/02 11:08:03;;;;;;;14.73;10.13;;;;;;;;;;5053162;28;20158;-70
2022/03/02 11:10:33;;;;;;;16.70;10.25;;;;;;;;;;5053106;28;20061;-73
2022/03/02 11:13:00;;;;;;;17.65;11.15;;;;;;;;;;5053490;28;20036;-71
2022/03/02 11:15:26;;;;;;;22.40;10.55;;;;;;;;;;5053122;28;20392;-72
2022/03/02 11:18:00;;;;;;;14.48;10.68;;;;;;;;;;5053055;28;20020;-72
2022/03/02 11:20:28;;;;;;;13.70;10.40;;;;;;;;;;5053000;28;20040;-70
2022/03/02 11:22:59;;;;;;;16.85;10.25;;;;;;;;;;5053041;28;20079;-71
2022/03/02 11:25:44;;;;;;;14.15;9.45;;;;;;;;;;5053588;28;20029;-71
2022/03/02 11:28:13;;;;;;;14.48;9.65;;;;;;;;;;5053592;28;20022;-71
2022/03/02 11:30:39;;;;;;;14.52;9.98;;;;;;;;;;5053132;28;20032;-70
2022/03/02 11:33:06;;;;;;;16.10;11.18;;;;;;;;;;5053075;28;20021;-71
2022/03/02 11:35:36;;;;;;;15.65;11.60;;;;;;;;;;5053157;28;20381;-71
2022/03/02 11:38:04;;;;;;;14.43;9.93;;;;;;;;;;5052957;28;20075;-73
2022/03/02 11:40:44;;;;;;;14.23;9.23;;;;;;;;;;5053045;28;20070;-71
2022/03/02 11:43:21;;;;;;;15.32;8.93;;;;;;;;;;5053237;28;20051;-73
2022/03/02 11:45:47;;;;;;;13.35;9.23;;;;;;;;;;5053750;28;20453;-72
2022/03/02 11:48:15;;;;;;;15.13;9.43;;;;;;;;;;5052911;28;20032;-72
2022/03/02 11:51:00;;;;;;;12.45;9.15;;;;;;;;;;5053073;28;20025;-71
2022/03/02 11:53:34;;;;;;;12.60;8.93;;;;;;;;;;5052809;28;20105;-73
2022/03/02 11:56:01;;;;;;;14.15;9.02;;;;;;;;;;5055897;28;20025;-73
2022/03/02 11:58:27;;;;;;;18.90;9.43;;;;;;;;;;5056672;28;20021;-71
2022/03/02 12:01:04;;;;;;;12.57;7.57;;;;;;;;;;5057105;28;20369;-72
2022/03/02 12:03:30;;;;;;;12.00;7.55;;;;;;;;;;5056940;28;20029;-72
2022/03/02 12:06:04;;;;;;;10.20;7.55;;;;;;;;;;5056354;28;20113;-70
2022/03/02 12:08:33;;;;;;;10.93;6.63;;;;;;;;;;5056923;28;20028;-71
2022/03/02 12:11:02;;;;;;;12.65;6.88;;;;;;;;;;5057072;28;20373;-72
2022/03/02 12:13:29;;;;;;;15.48;8.55;;;;;;;;;;5056381;28;20025;-71
2022/03/02 12:15:55;;;;;;;9.65;6.10;;;;;;;;;;5056356;28;20451;-70
2022/03/02 12:18:22;;;;;;;13.23;7.03;;;;;;;;;;5056324;28;20040;-69
2022/03/02 12:20:48;;;;;;;9.15;5.97;;;;;;;;;;5056595;28;20457;-70
2022/03/02 12:23:14;;;;;;;10.57;6.38;;;;;;;;;;5056529;28;20025;-72
2022/03/02 12:25:45;;;;;;;12.30;6.40;;;;;;;;;;5056587;28;20500;-72
2022/03/02 12:28:13;;;;;;;9.95;5.97;;;;;;;;;;5056861;28;20040;-70
2022/03/02 12:30:39;;;;;;;8.73;6.43;;;;;;;;;;5056098;28;20029;-70
2022/03/02 12:33:06;;;;;;;9.57;6.07;;;;;;;;;;5056318;28;20075;-69
2022/03/02 12:35:32;;;;;;;8.73;6.15;;;;;;;;;;5055908;28;20021;-72
2022/03/02 12:37:59;;;;;;;8.73;5.78;;;;;;;;;;5055838;28;20074;-72
2022/03/02 12:40:28;;;;;;;8.77;5.80;;;;;;;;;;5056082;28;20044;-71
2022/03/02 12:42:55;;;;;;;10.07;6.05;;;;;;;;;;5055783;28;20029;-71
2022/03/02 12:45:21;;;;;;;8.95;5.28;;;;;;;;;;5055744;28;20028;-70
2022/03/02 12:47:47;;;;;;;9.73;5.47;;;;;;;;;;5055768;28;20025;-71
2022/03/02 12:50:15;;;;;;;5.93;4.13;;;;;;;;;;5055577;28;20029;-70
2022/03/02 12:52:41;;;;;;;6.68;4.63;;;;;;;;;;5055654;28;20358;-73
2022/03/02 12:55:08;;;;;;;10.25;5.28;;;;;;;;;;5055528;28;20096;-72
2022/03/02 12:57:35;;;;;;;9.55;5.20;;;;;;;;;;5056047;28;20032;-72
2022/03/02 13:00:03;;;;;;;8.13;5.18;;;;;;;;;;5055554;28;20074;-72
2022/03/02 13:02:30;;;;;;;7.82;4.65;;;;;;;;;;5055965;28;20017;-72
2022/03/02 13:05:15;;;;;;;12.75;5.90;;;;;;;;;;5055060;28;20048;-72
2022/03/02 13:07:53;;;;;;;5.65;3.10;;;;;;;;;;5037421;28;20021;-71
2022/03/02 13:10:23;;;;;;;7.32;3.92;;;;;;;;;;5055527;28;20033;-71
2022/03/02 13:12:49;;;;;;;;;;;;;;;;;;5055651;28;20021;-71
2022/03/02 13:15:18;;;;;;;8.02;4.10;;;;;;;;;;5055184;28;19909;-70
2022/03/02 13:17:44;;;;;;;8.38;4.43;;;;;;;;;;5055185;28;20028;-70
2022/03/02 13:20:17;;;;;;;15.23;4.43;;;;;;;;;;5055083;28;20500;-70
2022/03/02 13:22:43;;;;;;;3.60;2.45;;;;;;;;;;5055079;28;20025;-71
2022/03/02 13:25:10;;;;;;;7.07;3.28;;;;;;;;;;5054994;28;20048;-71
2022/03/02 13:27:36;;;;;;;6.25;4.05;;;;;;;;;;5054968;28;20021;-70
2022/03/02 13:30:02;;;;;;;7.13;4.15;;;;;;;;;;5054839;28;20029;-71
2022/03/02 13:32:52;;;;;;;9.10;4.00;;;;;;;;;;5054882;28;20470;-69
2022/03/02 13:35:18;;;;;;;7.53;4.38;;;;;;;;;;5055178;28;20373;-70
2022/03/02 13:38:04;;;;;;;7.28;3.90;;;;;;;;;;5055114;28;20052;-71
2022/03/02 13:40:33;;;;;;;7.07;4.15;;;;;;;;;;5055139;28;20029;-72
2022/03/02 13:43:05;;;;;;;17.73;4.22;;;;;;;;;;5054706;28;20056;-69
2022/03/02 13:45:35;;;;;;;8.82;3.83;;;;;;;;;;5036794;28;20486;-72
2022/03/02 13:48:21;;;;;;;15.93;7.75;;;;;;;;;;5054594;28;20504;-71
2022/03/02 13:50:57;;;;;;;10.98;6.30;;;;;;;;;;5054761;28;20112;-72
2022/03/02 13:53:35;;;;;;;18.02;12.25;;;;;;;;;;5054478;28;20362;-71
2022/03/02 13:56:20;;;;;;;9.98;5.78;;;;;;;;;;5054397;28;20454;-69
2022/03/02 13:58:50;;;;;;;11.73;7.03;;;;;;;;;;5054916;28;20025;-71
2022/03/02 14:01:25;;;;;;;12.43;6.33;;;;;;;;;;5054325;28;20025;-71
2022/03/02 14:04:04;;;;;;;12.43;6.25;;;;;;;;;;5035957;28;20021;-70
2022/03/02 14:06:30;;;;;;;12.45;5.90;;;;;;;;;;5036113;28;20041;-73
2022/03/02 14:08:57;;;;;;;16.30;7.43;;;;;;;;;;5054178;28;20078;-71
2022/03/02 14:11:29;;;;;;;11.60;6.22;;;;;;;;;;5054046;28;20133;-71
2022/03/02 14:13:56;;;;;;;12.52;6.53;;;;;;;;;;5054071;28;20166;-71
2022/03/02 14:16:23;;;;;;;9.60;5.82;;;;;;;;;;5054228;28;20456;-70
2022/03/02 14:19:02;;;;;;;12.35;7.78;;;;;;;;;;5053102;28;20071;-71
2022/03/02 14:21:28;;;;;;;11.60;5.97;;;;;;;;;;5054245;28;20029;-74
2022/03/02 14:23:54;;;;;;;8.43;5.60;;;;;;;;;;5053755;28;20021;-72